sensor_id;sensor_type;location;lat;lon;timestamp;P1;durP1;ratioP1;P2;durP2;ratioP2
74995;SDS011;63545;51.690;5.202;2024-02-26T00:01:32;4.37;;;3.20;;
74995;SDS011;63545;51.690;5.202;2024-02-26T00:03:59;5.10;;;3.00;;
74995;SDS011;63545;51.690;5.202;2024-02-26T00:06:25;6.87;;;3.10;;
74995;SDS011;63545;51.690;5.202;2024-02-26T00:08:50;4.47;;;2.83;;
74995;SDS011;63545;51.690;5.202;2024-02-26T00:11:15;5.63;;;2.90;;
74995;SDS011;63545;51.690;5.202;2024-02-26T00:13:41;5.77;;;3.00;;
74995;SDS011;63545;51.690;5.202;2024-02-26T00:16:06;4.93;;;3.00;;
74995;SDS011;63545;51.690;5.202;2024-02-26T00:18:32;5.18;;;3.30;;
74995;SDS011;63545;51.690;5.202;2024-02-26T00:20:57;5.50;;;2.83;;
74995;SDS011;63545;51.690;5.202;2024-02-26T00:23:23;3.97;;;2.77;;
74995;SDS011;63545;51.690;5.202;2024-02-26T00:25:49;3.60;;;2.90;;
74995;SDS011;63545;51.690;5.202;2024-02-26T00:28:14;4.87;;;3.20;;
74995;SDS011;63545;51.690;5.202;2024-02-26T00:30:39;4.00;;;2.73;;
74995;SDS011;63545;51.690;5.202;2024-02-26T00:33:05;7.80;;;3.03;;
74995;SDS011;63545;51.690;5.202;2024-02-26T00:35:30;4.90;;;2.77;;
74995;SDS011;63545;51.690;5.202;2024-02-26T00:37:55;6.35;;;3.00;;
74995;SDS011;63545;51.690;5.202;2024-02-26T00:40:21;6.72;;;3.10;;
74995;SDS011;63545;51.690;5.202;2024-02-26T00:42:46;6.73;;;2.93;;
74995;SDS011;63545;51.690;5.202;2024-02-26T00:45:12;6.43;;;3.22;;
74995;SDS011;63545;51.690;5.202;2024-02-26T00:47:38;5.77;;;3.47;;
74995;SDS011;63545;51.690;5.202;2024-02-26T00:50:06;4.18;;;3.03;;
74995;SDS011;63545;51.690;5.202;2024-02-26T00:52:32;5.35;;;3.13;;
74995;SDS011;63545;51.690;5.202;2024-02-26T00:54:57;5.37;;;3.17;;
74995;SDS011;63545;51.690;5.202;2024-02-26T00:57:22;7.17;;;3.33;;
74995;SDS011;63545;51.690;5.202;2024-02-26T00:59:48;4.07;;;3.13;;
74995;SDS011;63545;51.690;5.202;2024-02-26T01:02:13;6.43;;;3.20;;
74995;SDS011;63545;51.690;5.202;2024-02-26T01:04:39;6.10;;;3.10;;
74995;SDS011;63545;51.690;5.202;2024-02-26T01:07:04;4.77;;;3.20;;
74995;SDS011;63545;51.690;5.202;2024-02-26T01:09:29;5.10;;;2.83;;
74995;SDS011;63545;51.690;5.202;2024-02-26T01:11:54;5.87;;;3.20;;
74995;SDS011;63545;51.690;5.202;2024-02-26T01:14:20;5.70;;;2.97;;
74995;SDS011;63545;51.690;5.202;2024-02-26T01:16:45;5.47;;;3.10;;
74995;SDS011;63545;51.690;5.202;2024-02-26T01:19:11;6.27;;;3.60;;
74995;SDS011;63545;51.690;5.202;2024-02-26T01:21:36;5.00;;;3.23;;
74995;SDS011;63545;51.690;5.202;2024-02-26T01:24:01;5.43;;;3.60;;
74995;SDS011;63545;51.690;5.202;2024-02-26T01:26:26;6.53;;;3.58;;
74995;SDS011;63545;51.690;5.202;2024-02-26T01:28:52;6.15;;;3.50;;
74995;SDS011;63545;51.690;5.202;2024-02-26T01:31:17;5.30;;;3.47;;
74995;SDS011;63545;51.690;5.202;2024-02-26T01:33:45;5.67;;;3.60;;
74995;SDS011;63545;51.690;5.202;2024-02-26T01:36:11;5.80;;;3.85;;
74995;SDS011;63545;51.690;5.202;2024-02-26T01:38:43;8.77;;;3.50;;
74995;SDS011;63545;51.690;5.202;2024-02-26T01:41:09;6.88;;;4.30;;
74995;SDS011;63545;51.690;5.202;2024-02-26T01:43:34;6.23;;;3.80;;
74995;SDS011;63545;51.690;5.202;2024-02-26T01:46:00;6.70;;;3.60;;
74995;SDS011;63545;51.690;5.202;2024-02-26T01:48:25;6.60;;;4.10;;
74995;SDS011;63545;51.690;5.202;2024-02-26T01:50:51;6.20;;;3.53;;
74995;SDS011;63545;51.690;5.202;2024-02-26T01:53:16;7.00;;;3.67;;
74995;SDS011;63545;51.690;5.202;2024-02-26T01:55:42;6.77;;;4.30;;
74995;SDS011;63545;51.690;5.202;2024-02-26T01:58:07;8.88;;;4.25;;
74995;SDS011;63545;51.690;5.202;2024-02-26T02:00:32;6.20;;;4.63;;
74995;SDS011;63545;51.690;5.202;2024-02-26T02:02:58;6.90;;;4.50;;
74995;SDS011;63545;51.690;5.202;2024-02-26T02:05:23;6.57;;;4.20;;
74995;SDS011;63545;51.690;5.202;2024-02-26T02:07:50;6.32;;;4.53;;
74995;SDS011;63545;51.690;5.202;2024-02-26T02:10:16;5.55;;;4.50;;
74995;SDS011;63545;51.690;5.202;2024-02-26T02:12:43;7.00;;;4.13;;
74995;SDS011;63545;51.690;5.202;2024-02-26T02:15:08;6.87;;;4.17;;
74995;SDS011;63545;51.690;5.202;2024-02-26T02:17:34;5.63;;;4.20;;
74995;SDS011;63545;51.690;5.202;2024-02-26T02:19:59;8.57;;;4.50;;
74995;SDS011;63545;51.690;5.202;2024-02-26T02:22:25;10.15;;;5.00;;
74995;SDS011;63545;51.690;5.202;2024-02-26T02:24:52;7.27;;;5.07;;
74995;SDS011;63545;51.690;5.202;2024-02-26T02:27:17;9.27;;;5.45;;
74995;SDS011;63545;51.690;5.202;2024-02-26T02:29:42;9.50;;;5.10;;
74995;SDS011;63545;51.690;5.202;2024-02-26T02:32:08;9.17;;;5.13;;
74995;SDS011;63545;51.690;5.202;2024-02-26T02:34:33;7.93;;;5.07;;
74995;SDS011;63545;51.690;5.202;2024-02-26T02:36:59;8.23;;;5.23;;
74995;SDS011;63545;51.690;5.202;2024-02-26T02:39:24;7.07;;;5.03;;
74995;SDS011;63545;51.690;5.202;2024-02-26T02:41:50;8.73;;;4.93;;
74995;SDS011;63545;51.690;5.202;2024-02-26T02:44:15;10.10;;;5.40;;
74995;SDS011;63545;51.690;5.202;2024-02-26T02:46:41;7.50;;;4.50;;
74995;SDS011;63545;51.690;5.202;2024-02-26T02:49:09;9.27;;;5.00;;
74995;SDS011;63545;51.690;5.202;2024-02-26T02:51:39;7.57;;;5.25;;
74995;SDS011;63545;51.690;5.202;2024-02-26T02:54:04;8.77;;;5.50;;
74995;SDS011;63545;51.690;5.202;2024-02-26T02:56:29;8.53;;;5.33;;
74995;SDS011;63545;51.690;5.202;2024-02-26T02:58:55;6.50;;;4.90;;
74995;SDS011;63545;51.690;5.202;2024-02-26T03:01:20;10.53;;;5.03;;
74995;SDS011;63545;51.690;5.202;2024-02-26T03:03:45;10.37;;;5.43;;
74995;SDS011;63545;51.690;5.202;2024-02-26T03:06:11;8.13;;;5.57;;
74995;SDS011;63545;51.690;5.202;2024-02-26T03:08:36;6.60;;;4.20;;
74995;SDS011;63545;51.690;5.202;2024-02-26T03:11:04;8.85;;;5.72;;
74995;SDS011;63545;51.690;5.202;2024-02-26T03:13:29;8.38;;;5.45;;
74995;SDS011;63545;51.690;5.202;2024-02-26T03:15:55;8.30;;;5.90;;
74995;SDS011;63545;51.690;5.202;2024-02-26T03:18:20;7.60;;;5.40;;
74995;SDS011;63545;51.690;5.202;2024-02-26T03:20:45;7.77;;;5.20;;
74995;SDS011;63545;51.690;5.202;2024-02-26T03:23:11;9.20;;;5.40;;
74995;SDS011;63545;51.690;5.202;2024-02-26T03:25:39;9.15;;;5.60;;
74995;SDS011;63545;51.690;5.202;2024-02-26T03:28:06;8.70;;;5.80;;
74995;SDS011;63545;51.690;5.202;2024-02-26T03:30:31;8.37;;;6.30;;
74995;SDS011;63545;51.690;5.202;2024-02-26T03:32:57;9.30;;;6.33;;
74995;SDS011;63545;51.690;5.202;2024-02-26T03:35:22;10.20;;;5.90;;
74995;SDS011;63545;51.690;5.202;2024-02-26T03:37:47;12.88;;;6.43;;
74995;SDS011;63545;51.690;5.202;2024-02-26T03:40:13;10.52;;;6.40;;
74995;SDS011;63545;51.690;5.202;2024-02-26T03:42:39;10.07;;;6.70;;
74995;SDS011;63545;51.690;5.202;2024-02-26T03:45:05;8.02;;;6.30;;
74995;SDS011;63545;51.690;5.202;2024-02-26T03:47:31;9.02;;;6.53;;
74995;SDS011;63545;51.690;5.202;2024-02-26T03:49:56;11.95;;;7.15;;
74995;SDS011;63545;51.690;5.202;2024-02-26T03:52:21;10.17;;;6.53;;
74995;SDS011;63545;51.690;5.202;2024-02-26T03:54:47;9.17;;;6.60;;
74995;SDS011;63545;51.690;5.202;2024-02-26T03:57:12;9.23;;;6.37;;
74995;SDS011;63545;51.690;5.202;2024-02-26T03:59:37;9.17;;;6.53;;
74995;SDS011;63545;51.690;5.202;2024-02-26T04:02:04;9.05;;;6.80;;
74995;SDS011;63545;51.690;5.202;2024-02-26T04:04:29;10.57;;;6.27;;
74995;SDS011;63545;51.690;5.202;2024-02-26T04:06:55;14.17;;;6.77;;
74995;SDS011;63545;51.690;5.202;2024-02-26T04:09:20;10.97;;;6.23;;
74995;SDS011;63545;51.690;5.202;2024-02-26T04:11:46;11.45;;;6.57;;
74995;SDS011;63545;51.690;5.202;2024-02-26T04:14:11;11.68;;;6.40;;
74995;SDS011;63545;51.690;5.202;2024-02-26T04:16:37;9.63;;;6.17;;
74995;SDS011;63545;51.690;5.202;2024-02-26T04:19:03;10.20;;;6.60;;
74995;SDS011;63545;51.690;5.202;2024-02-26T04:21:28;10.50;;;6.30;;
74995;SDS011;63545;51.690;5.202;2024-02-26T04:23:53;8.17;;;6.37;;
74995;SDS011;63545;51.690;5.202;2024-02-26T04:26:20;10.32;;;5.85;;
74995;SDS011;63545;51.690;5.202;2024-02-26T04:28:46;8.60;;;6.20;;
74995;SDS011;63545;51.690;5.202;2024-02-26T04:31:11;10.75;;;6.47;;
74995;SDS011;63545;51.690;5.202;2024-02-26T04:33:37;8.43;;;5.57;;
74995;SDS011;63545;51.690;5.202;2024-02-26T04:36:02;8.00;;;5.53;;
74995;SDS011;63545;51.690;5.202;2024-02-26T04:38:28;8.68;;;5.70;;
74995;SDS011;63545;51.690;5.202;2024-02-26T04:40:54;8.60;;;5.47;;
74995;SDS011;63545;51.690;5.202;2024-02-26T04:43:19;11.20;;;5.60;;
74995;SDS011;63545;51.690;5.202;2024-02-26T04:45:44;10.17;;;5.83;;
74995;SDS011;63545;51.690;5.202;2024-02-26T04:48:10;9.47;;;5.47;;
74995;SDS011;63545;51.690;5.202;2024-02-26T04:50:35;7.93;;;5.63;;
74995;SDS011;63545;51.690;5.202;2024-02-26T04:53:00;8.27;;;5.43;;
74995;SDS011;63545;51.690;5.202;2024-02-26T04:55:26;7.80;;;5.15;;
74995;SDS011;63545;51.690;5.202;2024-02-26T04:57:51;7.50;;;5.60;;
74995;SDS011;63545;51.690;5.202;2024-02-26T05:00:17;9.40;;;5.97;;
74995;SDS011;63545;51.690;5.202;2024-02-26T05:02:42;7.80;;;5.67;;
74995;SDS011;63545;51.690;5.202;2024-02-26T05:05:08;9.82;;;5.97;;
74995;SDS011;63545;51.690;5.202;2024-02-26T05:07:40;8.03;;;5.60;;
74995;SDS011;63545;51.690;5.202;2024-02-26T05:10:07;9.55;;;6.15;;
74995;SDS011;63545;51.690;5.202;2024-02-26T05:12:33;8.55;;;6.43;;
74995;SDS011;63545;51.690;5.202;2024-02-26T05:15:00;9.30;;;5.80;;
74995;SDS011;63545;51.690;5.202;2024-02-26T05:17:25;9.60;;;6.17;;
74995;SDS011;63545;51.690;5.202;2024-02-26T05:19:51;8.97;;;6.40;;
74995;SDS011;63545;51.690;5.202;2024-02-26T05:22:16;8.80;;;6.30;;
74995;SDS011;63545;51.690;5.202;2024-02-26T05:24:42;8.18;;;5.32;;
74995;SDS011;63545;51.690;5.202;2024-02-26T05:27:07;9.33;;;6.73;;
74995;SDS011;63545;51.690;5.202;2024-02-26T05:29:33;12.60;;;6.80;;
74995;SDS011;63545;51.690;5.202;2024-02-26T05:31:58;10.53;;;6.63;;
74995;SDS011;63545;51.690;5.202;2024-02-26T05:34:23;11.70;;;6.37;;
74995;SDS011;63545;51.690;5.202;2024-02-26T05:36:49;11.52;;;6.72;;
74995;SDS011;63545;51.690;5.202;2024-02-26T05:39:14;11.32;;;7.38;;
74995;SDS011;63545;51.690;5.202;2024-02-26T05:41:41;12.97;;;6.77;;
74995;SDS011;63545;51.690;5.202;2024-02-26T05:44:08;12.07;;;6.78;;
74995;SDS011;63545;51.690;5.202;2024-02-26T05:46:35;10.95;;;6.97;;
74995;SDS011;63545;51.690;5.202;2024-02-26T05:49:00;11.20;;;7.03;;
74995;SDS011;63545;51.690;5.202;2024-02-26T05:51:26;10.98;;;7.20;;
74995;SDS011;63545;51.690;5.202;2024-02-26T05:53:51;10.60;;;6.63;;
74995;SDS011;63545;51.690;5.202;2024-02-26T05:56:20;12.63;;;7.78;;
74995;SDS011;63545;51.690;5.202;2024-02-26T05:58:46;11.75;;;7.43;;
74995;SDS011;63545;51.690;5.202;2024-02-26T06:01:12;11.55;;;7.95;;
74995;SDS011;63545;51.690;5.202;2024-02-26T06:03:37;13.23;;;8.03;;
74995;SDS011;63545;51.690;5.202;2024-02-26T06:06:03;12.93;;;8.10;;
74995;SDS011;63545;51.690;5.202;2024-02-26T06:08:29;12.30;;;8.07;;
74995;SDS011;63545;51.690;5.202;2024-02-26T06:10:54;14.00;;;8.00;;
74995;SDS011;63545;51.690;5.202;2024-02-26T06:13:19;13.33;;;8.00;;
74995;SDS011;63545;51.690;5.202;2024-02-26T06:15:45;16.67;;;8.80;;
74995;SDS011;63545;51.690;5.202;2024-02-26T06:18:11;13.80;;;8.87;;
74995;SDS011;63545;51.690;5.202;2024-02-26T06:20:36;13.90;;;8.43;;
74995;SDS011;63545;51.690;5.202;2024-02-26T06:23:01;15.83;;;8.40;;
74995;SDS011;63545;51.690;5.202;2024-02-26T06:25:27;13.50;;;8.30;;
74995;SDS011;63545;51.690;5.202;2024-02-26T06:27:52;12.87;;;8.60;;
74995;SDS011;63545;51.690;5.202;2024-02-26T06:30:17;10.80;;;6.82;;
74995;SDS011;63545;51.690;5.202;2024-02-26T06:32:43;12.83;;;8.00;;
74995;SDS011;63545;51.690;5.202;2024-02-26T06:35:08;11.97;;;7.70;;
74995;SDS011;63545;51.690;5.202;2024-02-26T06:37:36;12.90;;;7.88;;
74995;SDS011;63545;51.690;5.202;2024-02-26T06:40:02;12.30;;;7.90;;
74995;SDS011;63545;51.690;5.202;2024-02-26T06:42:31;12.68;;;8.25;;
74995;SDS011;63545;51.690;5.202;2024-02-26T06:44:57;14.60;;;8.82;;
74995;SDS011;63545;51.690;5.202;2024-02-26T06:47:23;13.00;;;9.00;;
74995;SDS011;63545;51.690;5.202;2024-02-26T06:49:48;14.02;;;8.30;;
74995;SDS011;63545;51.690;5.202;2024-02-26T06:52:13;13.37;;;7.80;;
74995;SDS011;63545;51.690;5.202;2024-02-26T06:54:39;15.47;;;9.23;;
74995;SDS011;63545;51.690;5.202;2024-02-26T06:57:04;16.93;;;9.00;;
74995;SDS011;63545;51.690;5.202;2024-02-26T06:59:29;12.17;;;8.20;;
74995;SDS011;63545;51.690;5.202;2024-02-26T07:01:55;14.20;;;8.57;;
74995;SDS011;63545;51.690;5.202;2024-02-26T07:04:20;14.67;;;8.87;;
74995;SDS011;63545;51.690;5.202;2024-02-26T07:06:45;13.50;;;8.37;;
74995;SDS011;63545;51.690;5.202;2024-02-26T07:09:12;13.80;;;8.75;;
74995;SDS011;63545;51.690;5.202;2024-02-26T07:11:38;15.60;;;9.15;;
74995;SDS011;63545;51.690;5.202;2024-02-26T07:14:06;15.43;;;9.43;;
74995;SDS011;63545;51.690;5.202;2024-02-26T07:16:32;13.57;;;8.32;;
74995;SDS011;63545;51.690;5.202;2024-02-26T07:18:57;15.27;;;8.67;;
74995;SDS011;63545;51.690;5.202;2024-02-26T07:21:23;12.47;;;8.37;;
74995;SDS011;63545;51.690;5.202;2024-02-26T07:23:48;12.17;;;8.30;;
74995;SDS011;63545;51.690;5.202;2024-02-26T07:26:13;14.70;;;8.50;;
74995;SDS011;63545;51.690;5.202;2024-02-26T07:28:39;12.55;;;8.45;;
74995;SDS011;63545;51.690;5.202;2024-02-26T07:31:04;13.40;;;8.40;;
74995;SDS011;63545;51.690;5.202;2024-02-26T07:33:30;12.83;;;8.37;;
74995;SDS011;63545;51.690;5.202;2024-02-26T07:35:55;13.33;;;8.27;;
74995;SDS011;63545;51.690;5.202;2024-02-26T07:38:20;15.10;;;9.20;;
74995;SDS011;63545;51.690;5.202;2024-02-26T07:40:45;13.27;;;8.93;;
74995;SDS011;63545;51.690;5.202;2024-02-26T07:43:11;14.67;;;9.47;;
74995;SDS011;63545;51.690;5.202;2024-02-26T07:45:36;13.68;;;8.77;;
74995;SDS011;63545;51.690;5.202;2024-02-26T07:48:02;16.17;;;8.48;;
74995;SDS011;63545;51.690;5.202;2024-02-26T07:50:27;12.77;;;8.80;;
74995;SDS011;63545;51.690;5.202;2024-02-26T07:52:53;12.98;;;9.15;;
74995;SDS011;63545;51.690;5.202;2024-02-26T07:55:18;14.75;;;8.73;;
74995;SDS011;63545;51.690;5.202;2024-02-26T07:57:44;15.77;;;9.70;;
74995;SDS011;63545;51.690;5.202;2024-02-26T08:00:09;14.35;;;9.32;;
74995;SDS011;63545;51.690;5.202;2024-02-26T08:02:38;11.68;;;8.48;;
74995;SDS011;63545;51.690;5.202;2024-02-26T08:05:04;12.45;;;7.72;;
74995;SDS011;63545;51.690;5.202;2024-02-26T08:07:30;12.63;;;8.53;;
74995;SDS011;63545;51.690;5.202;2024-02-26T08:09:55;16.63;;;10.23;;
74995;SDS011;63545;51.690;5.202;2024-02-26T08:12:20;13.83;;;9.13;;
74995;SDS011;63545;51.690;5.202;2024-02-26T08:14:46;16.73;;;9.90;;
74995;SDS011;63545;51.690;5.202;2024-02-26T08:17:11;19.27;;;10.80;;
74995;SDS011;63545;51.690;5.202;2024-02-26T08:19:36;21.50;;;11.90;;
74995;SDS011;63545;51.690;5.202;2024-02-26T08:22:02;19.40;;;11.87;;
74995;SDS011;63545;51.690;5.202;2024-02-26T08:24:27;18.85;;;11.77;;
74995;SDS011;63545;51.690;5.202;2024-02-26T08:26:53;15.40;;;9.70;;
74995;SDS011;63545;51.690;5.202;2024-02-26T08:29:18;24.57;;;12.97;;
74995;SDS011;63545;51.690;5.202;2024-02-26T08:31:44;20.73;;;11.37;;
74995;SDS011;63545;51.690;5.202;2024-02-26T08:34:09;21.03;;;11.93;;
74995;SDS011;63545;51.690;5.202;2024-02-26T08:36:34;22.37;;;12.70;;
74995;SDS011;63545;51.690;5.202;2024-02-26T08:39:00;26.02;;;13.45;;
74995;SDS011;63545;51.690;5.202;2024-02-26T08:41:25;25.27;;;13.37;;
74995;SDS011;63545;51.690;5.202;2024-02-26T08:43:51;23.23;;;12.37;;
74995;SDS011;63545;51.690;5.202;2024-02-26T08:46:16;21.58;;;12.57;;
74995;SDS011;63545;51.690;5.202;2024-02-26T08:48:42;23.83;;;11.48;;
74995;SDS011;63545;51.690;5.202;2024-02-26T08:51:07;25.37;;;13.20;;
74995;SDS011;63545;51.690;5.202;2024-02-26T08:53:33;26.55;;;13.43;;
74995;SDS011;63545;51.690;5.202;2024-02-26T08:55:59;23.07;;;11.97;;
74995;SDS011;63545;51.690;5.202;2024-02-26T08:58:24;24.33;;;12.40;;
74995;SDS011;63545;51.690;5.202;2024-02-26T09:00:50;18.17;;;9.73;;
74995;SDS011;63545;51.690;5.202;2024-02-26T09:03:15;23.50;;;11.87;;
74995;SDS011;63545;51.690;5.202;2024-02-26T09:05:41;25.77;;;12.73;;
74995;SDS011;63545;51.690;5.202;2024-02-26T09:08:06;25.70;;;13.33;;
74995;SDS011;63545;51.690;5.202;2024-02-26T09:10:31;25.30;;;11.95;;
74995;SDS011;63545;51.690;5.202;2024-02-26T09:12:57;19.85;;;10.38;;
74995;SDS011;63545;51.690;5.202;2024-02-26T09:15:23;25.50;;;12.88;;
74995;SDS011;63545;51.690;5.202;2024-02-26T09:17:48;23.33;;;12.20;;
74995;SDS011;63545;51.690;5.202;2024-02-26T09:20:15;24.60;;;12.02;;
74995;SDS011;63545;51.690;5.202;2024-02-26T09:22:41;24.43;;;12.03;;
74995;SDS011;63545;51.690;5.202;2024-02-26T09:25:07;28.83;;;13.15;;
74995;SDS011;63545;51.690;5.202;2024-02-26T09:27:33;26.50;;;12.75;;
74995;SDS011;63545;51.690;5.202;2024-02-26T09:29:58;19.70;;;9.67;;
74995;SDS011;63545;51.690;5.202;2024-02-26T09:32:23;25.07;;;13.47;;
74995;SDS011;63545;51.690;5.202;2024-02-26T09:34:49;29.20;;;12.57;;
74995;SDS011;63545;51.690;5.202;2024-02-26T09:37:15;21.17;;;10.07;;
74995;SDS011;63545;51.690;5.202;2024-02-26T09:39:40;28.77;;;12.67;;
74995;SDS011;63545;51.690;5.202;2024-02-26T09:42:05;26.17;;;12.47;;
74995;SDS011;63545;51.690;5.202;2024-02-26T09:44:35;31.58;;;13.07;;
74995;SDS011;63545;51.690;5.202;2024-02-26T09:47:03;30.80;;;13.13;;
74995;SDS011;63545;51.690;5.202;2024-02-26T09:49:30;34.03;;;12.57;;
74995;SDS011;63545;51.690;5.202;2024-02-26T09:51:55;31.33;;;13.02;;
74995;SDS011;63545;51.690;5.202;2024-02-26T09:54:21;35.25;;;13.77;;
74995;SDS011;63545;51.690;5.202;2024-02-26T09:56:47;37.70;;;15.13;;
74995;SDS011;63545;51.690;5.202;2024-02-26T09:59:15;33.30;;;13.38;;
74995;SDS011;63545;51.690;5.202;2024-02-26T10:01:42;36.83;;;15.32;;
74995;SDS011;63545;51.690;5.202;2024-02-26T10:04:07;32.63;;;13.40;;
74995;SDS011;63545;51.690;5.202;2024-02-26T10:06:34;39.80;;;15.20;;
74995;SDS011;63545;51.690;5.202;2024-02-26T10:08:59;29.93;;;13.03;;
74995;SDS011;63545;51.690;5.202;2024-02-26T10:11:25;36.17;;;14.23;;
74995;SDS011;63545;51.690;5.202;2024-02-26T10:13:50;37.13;;;14.57;;
74995;SDS011;63545;51.690;5.202;2024-02-26T10:16:16;37.40;;;14.20;;
74995;SDS011;63545;51.690;5.202;2024-02-26T10:18:45;38.70;;;13.90;;
74995;SDS011;63545;51.690;5.202;2024-02-26T10:21:15;25.73;;;11.55;;
74995;SDS011;63545;51.690;5.202;2024-02-26T10:23:42;33.65;;;13.52;;
74995;SDS011;63545;51.690;5.202;2024-02-26T10:26:09;34.60;;;14.15;;
74995;SDS011;63545;51.690;5.202;2024-02-26T10:28:36;31.10;;;13.20;;
74995;SDS011;63545;51.690;5.202;2024-02-26T10:31:01;32.77;;;12.50;;
74995;SDS011;63545;51.690;5.202;2024-02-26T10:33:27;31.27;;;12.63;;
74995;SDS011;63545;51.690;5.202;2024-02-26T10:35:52;29.50;;;13.15;;
74995;SDS011;63545;51.690;5.202;2024-02-26T10:38:19;35.85;;;13.93;;
74995;SDS011;63545;51.690;5.202;2024-02-26T10:40:45;25.88;;;13.13;;
74995;SDS011;63545;51.690;5.202;2024-02-26T10:43:11;31.58;;;12.73;;
74995;SDS011;63545;51.690;5.202;2024-02-26T10:45:38;33.58;;;13.70;;
74995;SDS011;63545;51.690;5.202;2024-02-26T10:48:09;29.20;;;12.43;;
74995;SDS011;63545;51.690;5.202;2024-02-26T10:50:36;30.05;;;12.80;;
74995;SDS011;63545;51.690;5.202;2024-02-26T10:53:01;28.27;;;12.87;;
74995;SDS011;63545;51.690;5.202;2024-02-26T10:55:27;29.50;;;13.75;;
74995;SDS011;63545;51.690;5.202;2024-02-26T10:57:52;27.67;;;12.80;;
74995;SDS011;63545;51.690;5.202;2024-02-26T11:00:18;26.67;;;11.25;;
74995;SDS011;63545;51.690;5.202;2024-02-26T11:02:47;31.73;;;13.10;;
74995;SDS011;63545;51.690;5.202;2024-02-26T11:05:13;28.48;;;11.57;;
74995;SDS011;63545;51.690;5.202;2024-02-26T11:07:39;28.75;;;13.70;;
74995;SDS011;63545;51.690;5.202;2024-02-26T11:10:06;31.38;;;13.65;;
74995;SDS011;63545;51.690;5.202;2024-02-26T11:12:32;27.50;;;13.23;;
74995;SDS011;63545;51.690;5.202;2024-02-26T11:15:00;26.45;;;12.98;;
74995;SDS011;63545;51.690;5.202;2024-02-26T11:17:27;28.00;;;13.07;;
74995;SDS011;63545;51.690;5.202;2024-02-26T11:19:56;22.08;;;11.38;;
74995;SDS011;63545;51.690;5.202;2024-02-26T11:22:23;28.13;;;12.90;;
74995;SDS011;63545;51.690;5.202;2024-02-26T11:24:51;29.33;;;13.32;;
74995;SDS011;63545;51.690;5.202;2024-02-26T11:27:17;28.27;;;13.20;;
74995;SDS011;63545;51.690;5.202;2024-02-26T11:29:44;28.63;;;13.32;;
74995;SDS011;63545;51.690;5.202;2024-02-26T11:32:13;28.27;;;12.90;;
74995;SDS011;63545;51.690;5.202;2024-02-26T11:34:39;30.23;;;13.43;;
74995;SDS011;63545;51.690;5.202;2024-02-26T11:37:11;27.38;;;13.05;;
74995;SDS011;63545;51.690;5.202;2024-02-26T11:39:41;24.73;;;12.25;;
74995;SDS011;63545;51.690;5.202;2024-02-26T11:42:07;26.33;;;12.85;;
74995;SDS011;63545;51.690;5.202;2024-02-26T11:44:33;26.50;;;13.45;;
74995;SDS011;63545;51.690;5.202;2024-02-26T11:46:59;27.23;;;13.20;;
74995;SDS011;63545;51.690;5.202;2024-02-26T11:49:35;26.63;;;14.45;;
74995;SDS011;63545;51.690;5.202;2024-02-26T11:52:00;23.20;;;12.00;;
74995;SDS011;63545;51.690;5.202;2024-02-26T11:54:39;22.90;;;12.13;;
74995;SDS011;63545;51.690;5.202;2024-02-26T11:59:53;27.87;;;13.83;;
74995;SDS011;63545;51.690;5.202;2024-02-26T12:05:14;28.65;;;13.98;;
74995;SDS011;63545;51.690;5.202;2024-02-26T12:07:44;29.67;;;14.10;;
74995;SDS011;63545;51.690;5.202;2024-02-26T12:10:23;19.23;;;11.50;;
74995;SDS011;63545;51.690;5.202;2024-02-26T12:13:04;26.13;;;12.93;;
74995;SDS011;63545;51.690;5.202;2024-02-26T12:15:42;25.70;;;13.43;;
74995;SDS011;63545;51.690;5.202;2024-02-26T12:18:08;27.63;;;14.77;;
74995;SDS011;63545;51.690;5.202;2024-02-26T12:20:36;24.95;;;13.45;;
74995;SDS011;63545;51.690;5.202;2024-02-26T12:23:04;19.85;;;11.82;;
74995;SDS011;63545;51.690;5.202;2024-02-26T12:25:30;28.97;;;14.30;;
74995;SDS011;63545;51.690;5.202;2024-02-26T12:27:56;30.00;;;14.70;;
74995;SDS011;63545;51.690;5.202;2024-02-26T12:30:22;25.33;;;14.18;;
74995;SDS011;63545;51.690;5.202;2024-02-26T12:32:48;26.75;;;13.13;;
74995;SDS011;63545;51.690;5.202;2024-02-26T12:35:15;27.43;;;15.60;;
74995;SDS011;63545;51.690;5.202;2024-02-26T12:37:41;28.45;;;15.30;;
74995;SDS011;63545;51.690;5.202;2024-02-26T12:40:08;23.50;;;12.43;;
74995;SDS011;63545;51.690;5.202;2024-02-26T12:42:34;25.38;;;13.40;;
74995;SDS011;63545;51.690;5.202;2024-02-26T12:45:04;27.05;;;14.32;;
74995;SDS011;63545;51.690;5.202;2024-02-26T12:47:39;27.65;;;13.55;;
74995;SDS011;63545;51.690;5.202;2024-02-26T12:50:05;27.50;;;15.10;;
74995;SDS011;63545;51.690;5.202;2024-02-26T12:52:32;29.35;;;14.15;;
74995;SDS011;63545;51.690;5.202;2024-02-26T12:54:58;25.05;;;14.30;;
74995;SDS011;63545;51.690;5.202;2024-02-26T12:57:23;22.70;;;12.87;;
74995;SDS011;63545;51.690;5.202;2024-02-26T12:59:49;25.93;;;13.60;;
74995;SDS011;63545;51.690;5.202;2024-02-26T13:02:14;23.33;;;12.47;;
74995;SDS011;63545;51.690;5.202;2024-02-26T13:04:39;24.43;;;12.90;;
74995;SDS011;63545;51.690;5.202;2024-02-26T13:07:05;24.48;;;12.88;;
74995;SDS011;63545;51.690;5.202;2024-02-26T13:09:33;24.85;;;13.10;;
74995;SDS011;63545;51.690;5.202;2024-02-26T13:12:03;25.92;;;13.10;;
74995;SDS011;63545;51.690;5.202;2024-02-26T13:14:29;24.47;;;12.07;;
74995;SDS011;63545;51.690;5.202;2024-02-26T13:16:57;22.65;;;12.80;;
74995;SDS011;63545;51.690;5.202;2024-02-26T13:19:22;23.52;;;12.10;;
74995;SDS011;63545;51.690;5.202;2024-02-26T13:21:48;27.35;;;12.25;;
74995;SDS011;63545;51.690;5.202;2024-02-26T13:24:14;23.27;;;11.27;;
74995;SDS011;63545;51.690;5.202;2024-02-26T13:26:39;23.07;;;12.30;;
74995;SDS011;63545;51.690;5.202;2024-02-26T13:29:04;19.60;;;10.40;;
74995;SDS011;63545;51.690;5.202;2024-02-26T13:31:30;19.52;;;10.18;;
74995;SDS011;63545;51.690;5.202;2024-02-26T13:33:56;19.33;;;10.23;;
74995;SDS011;63545;51.690;5.202;2024-02-26T13:36:24;18.30;;;9.67;;
74995;SDS011;63545;51.690;5.202;2024-02-26T13:38:51;20.13;;;10.05;;
74995;SDS011;63545;51.690;5.202;2024-02-26T13:41:17;18.48;;;9.00;;
74995;SDS011;63545;51.690;5.202;2024-02-26T13:43:43;15.17;;;8.77;;
74995;SDS011;63545;51.690;5.202;2024-02-26T13:46:09;17.83;;;9.00;;
74995;SDS011;63545;51.690;5.202;2024-02-26T13:48:35;15.98;;;9.05;;
74995;SDS011;63545;51.690;5.202;2024-02-26T13:51:01;18.40;;;9.03;;
74995;SDS011;63545;51.690;5.202;2024-02-26T13:53:26;16.93;;;8.93;;
74995;SDS011;63545;51.690;5.202;2024-02-26T13:55:52;18.27;;;9.03;;
74995;SDS011;63545;51.690;5.202;2024-02-26T13:58:17;17.17;;;8.68;;
74995;SDS011;63545;51.690;5.202;2024-02-26T14:00:47;19.17;;;8.80;;
74995;SDS011;63545;51.690;5.202;2024-02-26T14:03:13;18.83;;;8.82;;
74995;SDS011;63545;51.690;5.202;2024-02-26T14:05:38;14.17;;;8.50;;
74995;SDS011;63545;51.690;5.202;2024-02-26T14:08:04;14.93;;;7.47;;
74995;SDS011;63545;51.690;5.202;2024-02-26T14:10:30;13.88;;;7.82;;
74995;SDS011;63545;51.690;5.202;2024-02-26T14:12:56;14.25;;;7.68;;
74995;SDS011;63545;51.690;5.202;2024-02-26T14:15:22;16.13;;;8.20;;
74995;SDS011;63545;51.690;5.202;2024-02-26T14:17:49;16.65;;;8.30;;
74995;SDS011;63545;51.690;5.202;2024-02-26T14:20:19;17.10;;;9.02;;
74995;SDS011;63545;51.690;5.202;2024-02-26T14:22:45;14.67;;;7.83;;
74995;SDS011;63545;51.690;5.202;2024-02-26T14:25:10;13.88;;;7.50;;
74995;SDS011;63545;51.690;5.202;2024-02-26T14:27:36;17.77;;;9.07;;
74995;SDS011;63545;51.690;5.202;2024-02-26T14:30:01;17.90;;;9.30;;
74995;SDS011;63545;51.690;5.202;2024-02-26T14:32:27;14.67;;;8.20;;